Stanhope, New Jersey
Current Conditions -  °F | °C
As of 7:45 PM on Monday 24 Nov 2014 (Local Time) from KMMU Reporting Station
Clear Clear  
Wind Chill: 66°   Ceiling: Unl
Heat Index: 66°   Visibility: 10mi
Dew Point: 55°   Wind: 13mph
Humidity: 68%   Direction: 230°SW
Pressure: 29.67"   Gusts: 20mph
Location:  40.9°N, 74.71°W
Report Text: KMMU 250045Z 23011G17KT 10SM SKC 19/13 A2967
Loading
Personal Weather Stations






























Interactive Weather Map New forecast layout! Learn more

10-Day Weather Forecast

Advertisements
Track Severe Weather on mobile